Time;durP1;ratioP1;P1;durP2;ratioP2;P2;SDS_P1;SDS_P2;PMS_P1;PMS_P2;Temp;Humidity;BMP_temperature;BMP_pressure;BME280_temperature;BME280_humidity;BME280_pressure;Samples;Min_cycle;Max_cycle;Signal;HPM_P1;HPM_P2
2021/09/27 00:01:00;;;;;;;6.08;3.10;;;;;;;21.00;56.41;100281.77;1698167;83;21160;-63
2021/09/27 00:03:27;;;;;;;6.83;3.52;;;;;;;20.99;56.43;100280.10;1696822;84;21526;-62
2021/09/27 00:05:54;;;;;;;5.50;2.77;;;;;;;20.98;56.47;100280.35;1721156;81;21515;-63
2021/09/27 00:08:20;;;;;;;5.30;2.95;;;;;;;20.98;56.50;100277.66;1696768;83;21461;-62
2021/09/27 00:10:54;;;;;;;4.08;2.67;;;;;;;20.97;56.49;100282.20;1695152;84;21092;-63
2021/09/27 00:13:20;;;;;;;5.17;3.08;;;;;;;20.96;56.49;100285.16;1725660;83;21138;-64
2021/09/27 00:15:51;;;;;;;5.65;3.05;;;;;;;20.95;56.52;100284.84;1696749;81;21056;-64
2021/09/27 00:18:17;;;;;;;7.87;3.40;;;;;;;20.94;56.53;100290.77;1695141;84;21079;-64
2021/09/27 00:20:48;;;;;;;5.45;2.72;;;;;;;20.93;56.54;100293.69;1695231;84;21370;-63
2021/09/27 00:23:15;;;;;;;5.75;3.00;;;;;;;20.92;56.57;100302.32;1695350;84;21055;-62
2021/09/27 00:25:42;;;;;;;7.17;3.08;;;;;;;20.91;56.59;100306.59;1706286;83;21708;-62
2021/09/27 00:28:08;;;;;;;3.40;2.47;;;;;;;20.89;56.61;100306.80;1729053;81;21491;-63
2021/09/27 00:30:34;;;;;;;4.50;2.90;;;;;;;20.89;56.60;100309.50;1705308;82;21520;-64
2021/09/27 00:33:02;;;;;;;5.12;2.62;;;;;;;20.88;56.64;100329.97;1702969;84;21579;-65
2021/09/27 00:35:30;;;;;;;3.75;2.58;;;;;;;20.87;56.80;100325.64;1702891;82;21016;-65
2021/09/27 00:37:56;;;;;;;4.00;2.52;;;;;;;20.85;56.76;100330.44;1702891;83;21171;-64
2021/09/27 00:40:32;;;;;;;4.00;2.72;;;;;;;20.84;56.70;100323.37;1702702;84;21643;-65
2021/09/27 00:42:59;;;;;;;5.97;3.08;;;;;;;20.81;56.59;100330.05;1702930;84;21047;-64
2021/09/27 00:45:30;;;;;;;5.10;2.72;;;;;;;20.78;56.48;100326.42;1726227;82;21027;-64
2021/09/27 00:47:57;;;;;;;3.92;2.55;;;;;;;20.77;56.35;100335.59;1750827;79;21074;-64
2021/09/27 00:50:26;;;;;;;5.30;2.98;;;;;;;20.72;56.25;100332.19;1763322;79;21205;-65
2021/09/27 00:52:53;;;;;;;5.75;2.37;;;;;;;20.70;56.15;100329.41;1763175;80;21070;-65
2021/09/27 00:55:21;;;;;;;4.55;2.83;;;;;;;20.67;56.05;100333.89;1761385;79;21011;-64
2021/09/27 00:57:47;;;;;;;4.85;2.67;;;;;;;20.65;55.94;100330.58;1763098;81;21498;-65
2021/09/27 01:00:17;;;;;;;4.10;2.45;;;;;;;20.62;55.83;100334.03;1748735;81;21000;-64
2021/09/27 01:02:43;;;;;;;4.17;2.65;;;;;;;20.60;55.74;100338.00;1763150;81;21126;-65
2021/09/27 01:05:12;;;;;;;4.22;2.58;;;;;;;20.58;55.64;100340.06;1763374;81;21546;-64
2021/09/27 01:08:07;;;;;;;3.17;2.12;;;;;;;20.55;55.55;100335.95;1763485;80;21487;-64
2021/09/27 01:11:16;;;;;;;3.12;2.45;;;;;;;20.54;55.44;100341.55;1736109;79;21558;-65
2021/09/27 01:13:57;;;;;;;3.80;2.62;;;;;;;20.50;55.37;100341.69;1731783;81;20984;-65
2021/09/27 01:16:55;;;;;;;4.22;2.35;;;;;;;20.45;55.31;100340.98;1731499;81;21041;-64
2021/09/27 01:20:11;;;;;;;5.33;2.42;;;;;;;20.42;55.26;100346.83;1731279;82;20992;-65
2021/09/27 01:23:20;;;;;;;4.70;2.72;;;;;;;20.38;55.20;100341.56;1731321;82;21084;-66
2021/09/27 01:26:44;;;;;;;2.52;2.10;;;;;;;20.33;55.13;100342.73;1731730;81;21037;-66
2021/09/27 01:29:50;;;;;;;3.72;2.37;;;;;;;20.28;55.10;100346.09;1733046;80;21045;-64
2021/09/27 01:32:34;;;;;;;2.95;2.20;;;;;;;20.25;55.09;100344.35;1732934;81;23290;-65
2021/09/27 01:35:24;;;;;;;3.55;2.17;;;;;;;20.18;55.08;100347.89;1714399;82;21046;-65
2021/09/27 01:38:28;;;;;;;3.67;2.02;;;;;;;20.16;55.00;100351.33;1732507;79;21566;-66
2021/09/27 01:41:08;;;;;;;;;;;;;;;20.14;54.98;100356.11;1733898;82;21581;-64
2021/09/27 01:43:46;;;;;;;4.17;2.67;;;;;;;20.10;54.93;100357.59;1731451;82;20445;-64
2021/09/27 01:46:31;;;;;;;3.33;2.05;;;;;;;20.04;54.99;100359.28;1752745;79;23282;-65
2021/09/27 01:49:18;;;;;;;3.35;2.17;;;;;;;20.02;54.95;100359.20;1731772;81;21003;-65
2021/09/27 01:52:00;;;;;;;3.45;2.08;;;;;;;20.01;54.89;100365.62;1762233;79;21082;-65
2021/09/27 01:54:35;;;;;;;3.70;2.33;;;;;;;20.00;54.85;100369.37;1694892;81;20999;-66
2021/09/27 01:57:19;;;;;;;2.55;2.10;;;;;;;19.98;54.78;100368.77;1761679;81;21050;-65
2021/09/27 02:00:03;;;;;;;2.45;1.77;;;;;;;19.98;54.77;100379.55;1763840;79;21168;-64
2021/09/27 02:02:58;;;;;;;2.95;2.30;;;;;;;19.96;54.70;100380.28;1745156;79;21187;-65
2021/09/27 02:05:52;;;;;;;3.22;2.20;;;;;;;19.95;54.65;100382.66;1763038;80;21089;-65
2021/09/27 02:08:45;;;;;;;2.70;2.50;;;;;;;19.94;54.60;100382.38;1762632;80;21011;-65
2021/09/27 02:11:24;;;;;;;2.23;1.77;;;;;;;19.91;54.57;100382.26;1763183;80;21034;-65
2021/09/27 02:14:12;;;;;;;3.85;1.70;;;;;;;19.91;54.52;100381.44;1763090;80;21251;-64
2021/09/27 02:17:00;;;;;;;2.33;2.12;;;;;;;19.88;54.47;100377.84;1739578;79;21019;-66
2021/09/27 02:19:53;;;;;;;3.40;2.15;;;;;;;19.87;54.42;100381.56;1762481;80;21015;-64
2021/09/27 02:22:36;;;;;;;2.27;1.80;;;;;;;19.85;54.40;100379.08;1762923;80;21535;-65
2021/09/27 02:25:31;;;;;;;3.10;2.40;;;;;;;19.83;54.36;100381.98;1763211;80;21022;-65
2021/09/27 02:27:53;;;;;;;3.27;2.22;;;;;;;19.82;54.31;100378.17;1747586;79;21102;-64
2021/09/27 02:30:24;;;;;;;4.05;2.47;;;;;;;19.79;54.30;100386.14;1763062;80;21019;-64
2021/09/27 02:32:58;;;;;;;3.08;2.30;;;;;;;19.79;54.26;100385.33;1759313;80;21058;-64
2021/09/27 02:35:29;;;;;;;2.95;2.12;;;;;;;19.78;54.23;100384.50;1760275;80;21022;-65
2021/09/27 02:38:14;;;;;;;2.20;1.92;;;;;;;19.78;54.20;100385.00;1744462;79;21015;-64
2021/09/27 02:40:55;;;;;;;2.62;2.00;;;;;;;19.76;54.14;100387.94;1763261;80;21101;-65
2021/09/27 02:43:21;;;;;;;2.67;2.10;;;;;;;19.75;54.12;100391.66;1762381;80;21043;-64
2021/09/27 02:45:48;;;;;;;2.20;1.85;;;;;;;19.75;54.07;100392.19;1765480;80;21031;-64
2021/09/27 02:48:29;;;;;;;3.20;2.00;;;;;;;19.72;54.04;100396.14;1761119;79;21086;-65
2021/09/27 02:50:53;;;;;;;2.30;2.10;;;;;;;19.72;54.02;100396.14;1762386;79;21081;-65
2021/09/27 02:53:20;;;;;;;4.30;2.30;;;;;;;19.71;53.98;100398.48;1763058;80;21195;-65
2021/09/27 02:56:03;;;;;;;2.98;1.72;;;;;;;19.70;53.94;100391.45;1763234;80;22158;-66
2021/09/27 02:59:00;;;;;;;1.80;1.70;;;;;;;19.69;53.91;100400.56;1762825;80;21035;-64
2021/09/27 03:01:53;;;;;;;2.52;1.90;;;;;;;19.68;53.89;100397.55;1763380;79;21083;-65
2021/09/27 03:04:55;;;;;;;2.87;1.90;;;;;;;19.66;53.86;100396.94;1737836;80;21074;-64
2021/09/27 03:07:44;;;;;;;2.33;2.00;;;;;;;19.64;53.84;100402.56;1763109;80;21199;-63
2021/09/27 03:10:28;;;;;;;2.60;2.00;;;;;;;19.61;53.85;100401.62;1762891;80;21678;-64
2021/09/27 03:13:14;;;;;;;2.52;1.70;;;;;;;19.60;53.85;100399.13;1763123;80;20999;-64
2021/09/27 03:15:58;;;;;;;2.10;1.70;;;;;;;19.58;53.85;100397.99;1762906;80;21097;-64
2021/09/27 03:19:01;;;;;;;2.00;1.80;;;;;;;19.56;53.83;100392.52;1770982;79;21558;-64
2021/09/27 03:21:39;;;;;;;3.15;2.22;;;;;;;19.54;53.83;100394.06;1761030;80;21102;-65
2021/09/27 03:24:48;;;;;;;2.08;1.87;;;;;;;19.54;53.82;100395.94;1759587;80;21195;-66
2021/09/27 03:27:52;;;;;;;2.10;1.60;;;;;;;19.52;53.82;100399.37;1762941;79;21081;-64
2021/09/27 03:31:14;;;;;;;1.90;1.70;;;;;;;19.49;53.80;100397.94;1782428;80;21656;-64
2021/09/27 03:34:01;;;;;;;2.10;1.60;;;;;;;19.47;53.81;100397.81;1784373;80;21019;-65
2021/09/27 03:37:19;;;;;;;2.08;1.85;;;;;;;19.42;53.83;100398.45;1784660;79;21977;-64
2021/09/27 03:40:19;;;;;;;1.52;1.42;;;;;;;19.40;53.86;100398.66;1780004;79;21070;-65
2021/09/27 03:43:23;;;;;;;1.70;1.60;;;;;;;19.37;53.88;100401.80;1780928;80;21042;-64
2021/09/27 03:45:58;;;;;;;2.08;1.67;;;;;;;19.35;53.90;100405.72;1786427;79;21139;-64
2021/09/27 03:48:45;;;;;;;1.92;1.72;;;;;;;19.33;53.90;100408.61;1784462;80;21569;-65
2021/09/27 03:51:22;;;;;;;1.90;1.62;;;;;;;19.33;53.87;100413.18;1759237;79;21502;-65
2021/09/27 03:53:55;;;;;;;3.35;1.72;;;;;;;19.32;53.87;100416.41;1784856;80;21091;-65
2021/09/27 03:56:48;;;;;;;2.22;1.75;;;;;;;19.31;53.86;100416.60;1772431;79;21007;-65
2021/09/27 03:59:19;;;;;;;1.60;1.50;;;;;;;19.30;53.84;100414.44;1785159;79;21011;-64
2021/09/27 04:02:10;;;;;;;1.57;1.37;;;;;;;19.29;53.82;100415.45;1781496;79;21082;-65
2021/09/27 04:05:07;;;;;;;2.58;2.17;;;;;;;19.29;53.79;100416.80;1777797;80;21777;-65
2021/09/27 04:07:53;;;;;;;1.90;1.70;;;;;;;19.29;53.80;100414.64;1784439;80;21066;-65
2021/09/27 04:10:28;;;;;;;2.22;1.90;;;;;;;19.27;53.78;100416.72;1784137;79;21030;-65
2021/09/27 04:13:18;;;;;;;2.00;1.72;;;;;;;19.26;53.77;100422.63;1783138;80;21038;-66
2021/09/27 04:16:10;;;;;;;2.27;1.92;;;;;;;19.25;53.75;100422.30;1782662;80;21054;-65
2021/09/27 04:19:00;;;;;;;1.77;1.67;;;;;;;19.24;53.73;100419.31;1784475;80;23274;-65
2021/09/27 04:21:41;;;;;;;1.70;1.50;;;;;;;19.24;53.72;100429.56;1782442;80;21078;-66
2021/09/27 04:24:37;;;;;;;2.42;1.85;;;;;;;19.23;53.70;100429.77;1784695;80;20995;-66
2021/09/27 04:27:14;;;;;;;2.20;1.70;;;;;;;19.23;53.69;100429.77;1784579;79;21546;-65
2021/09/27 04:30:09;;;;;;;1.90;1.70;;;;;;;19.22;53.68;100436.20;1773283;80;21774;-65
2021/09/27 04:33:09;;;;;;;1.82;1.60;;;;;;;19.21;53.66;100429.15;1759902;80;21126;-66
2021/09/27 04:35:57;;;;;;;1.85;1.70;;;;;;;19.22;53.64;100433.52;1763170;79;21573;-66
2021/09/27 04:38:24;;;;;;;1.77;1.60;;;;;;;19.19;53.62;100425.31;1762865;80;21143;-66
2021/09/27 04:41:25;;;;;;;1.95;1.65;;;;;;;19.21;53.61;100423.77;1763187;80;21031;-65
2021/09/27 04:44:26;;;;;;;1.75;1.60;;;;;;;19.21;53.58;100425.93;1762951;80;21038;-64
2021/09/27 04:46:58;;;;;;;2.67;1.60;;;;;;;19.20;53.57;100424.29;1748424;79;21098;-64
2021/09/27 04:49:54;;;;;;;1.70;1.60;;;;;;;19.20;53.55;100424.78;1762959;79;21077;-65
2021/09/27 04:52:56;;;;;;;2.35;1.65;;;;;;;19.20;53.54;100430.17;1762783;80;21070;-66
2021/09/27 04:56:01;;;;;;;1.52;1.42;;;;;;;19.20;53.54;100430.17;1731138;79;21070;-65
2021/09/27 04:58:46;;;;;;;1.65;1.42;;;;;;;19.19;53.52;100417.76;1758516;79;21577;-64
2021/09/27 05:01:23;;;;;;;1.60;1.45;;;;;;;19.19;53.50;100424.48;1762112;80;21129;-65
2021/09/27 05:04:30;;;;;;;2.52;1.50;;;;;;;19.20;53.51;100416.70;1757896;79;21000;-65
2021/09/27 05:07:23;;;;;;;2.77;1.70;;;;;;;19.20;53.50;100422.94;1747309;80;21620;-68
2021/09/27 05:10:04;;;;;;;2.00;1.80;;;;;;;19.21;53.46;100411.64;1762955;80;21542;-67
2021/09/27 05:13:08;;;;;;;2.02;1.67;;;;;;;19.21;53.46;100412.46;1703197;80;21007;-68
2021/09/27 05:16:03;;;;;;;2.12;1.50;;;;;;;19.22;53.44;100405.23;1763056;80;21132;-69
2021/09/27 05:19:01;;;;;;;1.45;1.35;;;;;;;19.22;53.39;100409.27;1759368;80;21502;-67
2021/09/27 05:21:42;;;;;;;3.52;1.55;;;;;;;19.23;53.37;100415.77;1762919;80;21085;-69
2021/09/27 05:24:28;;;;;;;1.82;1.72;;;;;;;19.23;53.37;100413.08;1760461;80;21078;-68
2021/09/27 05:27:20;;;;;;;1.70;1.57;;;;;;;19.24;53.38;100419.31;1762462;79;21605;-69
2021/09/27 05:30:13;;;;;;;1.35;1.25;;;;;;;19.24;53.36;100420.66;1760551;80;21996;-67
2021/09/27 05:32:51;;;;;;;2.75;2.22;;;;;;;19.24;53.36;100425.52;1782103;80;21046;-67
2021/09/27 05:35:40;;;;;;;3.72;1.50;;;;;;;19.25;53.33;100423.65;1784443;79;21552;-69
2021/09/27 05:38:50;;;;;;;1.52;1.37;;;;;;;19.25;53.32;100431.20;1771753;80;21014;-67
2021/09/27 05:41:51;;;;;;;1.55;1.45;;;;;;;19.28;53.28;100426.44;1783582;80;21047;-69
2021/09/27 05:45:07;;;;;;;1.72;1.45;;;;;;;19.28;53.23;100429.98;1780402;79;21066;-67
2021/09/27 05:47:53;;;;;;;1.47;1.30;;;;;;;19.30;53.17;100420.35;1778138;79;21027;-67
2021/09/27 05:50:33;;;;;;;2.12;1.60;;;;;;;19.31;53.15;100417.42;1784593;79;21553;-69
2021/09/27 05:53:31;;;;;;;1.45;1.30;;;;;;;19.33;53.14;100423.95;1784632;80;21074;-68
2021/09/27 05:56:04;;;;;;;1.42;1.30;;;;;;;19.35;53.09;100421.35;1768541;79;21018;-68
2021/09/27 05:58:55;;;;;;;1.32;1.22;;;;;;;19.37;53.03;100421.16;1784127;79;21023;-66
2021/09/27 06:01:33;;;;;;;1.45;1.35;;;;;;;19.40;52.99;100416.70;1783708;80;21022;-69
2021/09/27 06:04:25;;;;;;;1.75;1.40;;;;;;;19.43;52.93;100417.61;1783266;79;21566;-68
2021/09/27 06:07:12;;;;;;;1.50;1.40;;;;;;;19.47;52.88;100420.72;1785054;80;21081;-67
2021/09/27 06:09:59;;;;;;;1.65;1.55;;;;;;;19.50;52.83;100420.31;1783856;80;20991;-68
2021/09/27 06:13:03;;;;;;;2.58;1.25;;;;;;;19.52;52.79;100424.97;1781820;79;21212;-69
2021/09/27 06:15:40;;;;;;;1.30;1.20;;;;;;;19.54;52.76;100425.06;1782351;80;21070;-69
2021/09/27 06:18:43;;;;;;;1.70;1.52;;;;;;;19.57;52.72;100433.27;1767417;80;21105;-68
2021/09/27 06:21:25;;;;;;;2.02;1.50;;;;;;;19.58;52.68;100431.68;1783479;80;21085;-67
2021/09/27 06:24:04;;;;;;;1.37;1.27;;;;;;;19.60;52.64;100425.56;1784266;80;21003;-69
2021/09/27 06:26:32;;;;;;;2.12;1.37;;;;;;;19.61;52.60;100433.14;1784535;80;21275;-69
2021/09/27 06:29:08;;;;;;;1.35;1.25;;;;;;;19.63;52.57;100434.58;1784381;80;20979;-69
2021/09/27 06:31:42;;;;;;;1.50;1.40;;;;;;;19.66;52.53;100436.02;1764195;81;21623;-69
2021/09/27 06:34:19;;;;;;;1.50;1.37;;;;;;;19.69;52.50;100438.30;1743851;80;21011;-70
2021/09/27 06:36:45;;;;;;;1.80;1.67;;;;;;;19.73;52.48;100445.48;1763362;80;21039;-69
2021/09/27 06:39:21;;;;;;;1.57;1.40;;;;;;;19.76;52.40;100441.00;1763257;80;22522;-69
2021/09/27 06:41:48;;;;;;;1.40;1.30;;;;;;;19.79;52.36;100436.55;1763144;80;21117;-70
2021/09/27 06:44:15;;;;;;;1.47;1.37;;;;;;;19.82;52.32;100428.87;1763641;80;21010;-68
2021/09/27 06:46:41;;;;;;;1.50;1.40;;;;;;;19.87;52.26;100438.19;1766049;79;21101;-69
2021/09/27 06:49:08;;;;;;;1.82;1.45;;;;;;;19.90;52.21;100435.08;1762893;80;21062;-69
2021/09/27 06:51:41;;;;;;;1.40;1.25;;;;;;;19.93;52.15;100436.80;1762674;79;21199;-71
2021/09/27 06:54:03;;;;;;;1.42;1.30;;;;;;;19.98;52.07;100437.53;1762636;80;21055;-69
2021/09/27 06:56:30;;;;;;;1.40;1.30;;;;;;;20.01;52.02;100436.58;1760850;80;20971;-69
2021/09/27 06:58:56;;;;;;;1.32;1.22;;;;;;;20.06;51.95;100443.20;1762946;80;21031;-69
2021/09/27 07:01:23;;;;;;;1.35;1.25;;;;;;;20.10;51.90;100436.34;1763185;80;21073;-70
2021/09/27 07:03:49;;;;;;;1.50;1.40;;;;;;;20.15;51.86;100437.88;1760795;80;21118;-69
2021/09/27 07:06:15;;;;;;;1.40;1.30;;;;;;;20.19;51.80;100445.85;1759166;80;21056;-70
2021/09/27 07:08:42;;;;;;;1.55;1.45;;;;;;;20.21;51.76;100448.62;1761838;80;21019;-69
2021/09/27 07:11:08;;;;;;;1.40;1.27;;;;;;;20.26;51.71;100444.45;1762947;80;21686;-70
2021/09/27 07:13:34;;;;;;;1.37;1.27;;;;;;;20.28;51.66;100441.02;1762914;80;21537;-69
2021/09/27 07:16:00;;;;;;;1.65;1.47;;;;;;;20.31;51.59;100436.55;1758959;80;21105;-69
2021/09/27 07:18:27;;;;;;;1.37;1.27;;;;;;;20.34;51.55;100441.50;1762649;80;21087;-69
2021/09/27 07:20:53;;;;;;;1.37;1.22;;;;;;;20.37;51.50;100441.09;1762591;80;21058;-69
2021/09/27 07:23:19;;;;;;;1.70;1.60;;;;;;;20.38;51.47;100437.36;1762761;80;21570;-69
2021/09/27 07:25:45;;;;;;;1.42;1.32;;;;;;;20.41;51.44;100441.78;1767496;80;21018;-69
2021/09/27 07:28:12;;;;;;;1.60;1.50;;;;;;;20.45;51.39;100448.11;1768773;80;21888;-70
2021/09/27 07:30:38;;;;;;;1.65;1.55;;;;;;;20.46;51.37;100451.95;1756338;79;21072;-69
2021/09/27 07:33:05;;;;;;;1.95;1.52;;;;;;;20.49;51.34;100446.09;1762991;80;21502;-68
2021/09/27 07:35:31;;;;;;;1.52;1.30;;;;;;;20.50;51.31;100447.77;1769785;79;20990;-70
2021/09/27 07:37:58;;;;;;;1.40;1.25;;;;;;;20.52;51.27;100451.60;1720339;81;21113;-69
2021/09/27 07:40:28;;;;;;;1.40;1.30;;;;;;;20.53;51.26;100447.84;1751135;80;21206;-69
2021/09/27 07:42:54;;;;;;;1.30;1.20;;;;;;;20.55;51.23;100450.66;1743172;81;21058;-70
2021/09/27 07:45:21;;;;;;;1.42;1.32;;;;;;;20.57;51.17;100445.86;1762915;80;21031;-70
2021/09/27 07:47:48;;;;;;;1.40;1.20;;;;;;;20.59;51.16;100444.27;1742233;80;21454;-65
2021/09/27 07:50:14;;;;;;;1.40;1.30;;;;;;;20.60;51.15;100445.97;1755741;80;21502;-66
2021/09/27 07:52:41;;;;;;;1.35;1.25;;;;;;;20.61;51.09;100444.95;1762774;80;21090;-63
2021/09/27 07:55:09;;;;;;;1.52;1.42;;;;;;;20.61;51.04;100455.21;1767310;80;21052;-64
2021/09/27 07:57:36;;;;;;;1.37;1.22;;;;;;;20.63;51.00;100453.65;1771727;79;21041;-64
2021/09/27 08:00:05;;;;;;;1.22;1.12;;;;;;;20.64;50.94;100451.23;1762921;80;21042;-64
2021/09/27 08:02:33;;;;;;;1.45;1.35;;;;;;;20.64;50.91;100447.19;1762415;80;21101;-65
2021/09/27 08:05:00;;;;;;;1.40;1.30;;;;;;;20.67;50.89;100454.02;1762931;80;21110;-64
2021/09/27 08:07:27;;;;;;;1.60;1.30;;;;;;;20.67;50.88;100448.62;1762814;80;21019;-64
2021/09/27 08:09:53;;;;;;;1.30;1.20;;;;;;;20.70;50.84;100450.89;1753357;79;21042;-64
2021/09/27 08:12:19;;;;;;;1.50;1.40;;;;;;;20.72;50.83;100441.52;1761284;80;21470;-64
2021/09/27 08:14:47;;;;;;;1.75;1.17;;;;;;;20.76;50.84;100441.92;1762937;80;21026;-65
2021/09/27 08:17:14;;;;;;;1.20;1.10;;;;;;;20.78;50.79;100443.38;1762921;80;21908;-64
2021/09/27 08:19:43;;;;;;;1.10;1.00;;;;;;;20.81;50.76;100444.80;1762703;80;21003;-65
2021/09/27 08:22:09;;;;;;;1.20;1.10;;;;;;;20.84;50.72;100448.93;1761418;80;21124;-66
2021/09/27 08:24:35;;;;;;;1.30;1.20;;;;;;;20.85;50.77;100451.41;1744445;80;21062;-65
2021/09/27 08:27:01;;;;;;;1.45;1.35;;;;;;;20.87;50.73;100452.55;1762881;80;21042;-69
2021/09/27 08:29:28;;;;;;;1.32;1.20;;;;;;;20.88;50.66;100450.99;1752884;80;22186;-69
2021/09/27 08:31:54;;;;;;;1.20;1.10;;;;;;;20.89;50.60;100459.91;1762814;80;21478;-69
2021/09/27 08:34:20;;;;;;;1.45;1.30;;;;;;;20.89;50.58;100458.03;1762805;80;21623;-68
2021/09/27 08:36:48;;;;;;;1.27;1.17;;;;;;;20.91;50.55;100468.63;1762748;80;21026;-69
2021/09/27 08:39:17;;;;;;;1.50;1.40;;;;;;;20.91;50.51;100461.34;1763066;80;21151;-69
2021/09/27 08:42:04;;;;;;;1.52;1.42;;;;;;;20.92;50.51;100459.45;1759098;79;21051;-69
2021/09/27 08:45:06;;;;;;;1.30;1.20;;;;;;;20.92;50.51;100461.66;1747001;80;21078;-69
2021/09/27 08:47:47;;;;;;;1.40;1.30;;;;;;;20.94;50.53;100453.34;1757793;80;21012;-69
2021/09/27 08:50:33;;;;;;;1.30;1.20;;;;;;;20.95;50.48;100453.10;1762187;80;21502;-68
2021/09/27 08:53:07;;;;;;;1.70;1.60;;;;;;;20.98;50.47;100447.80;1762526;80;21001;-67
2021/09/27 08:55:34;;;;;;;1.30;1.20;;;;;;;21.01;50.45;100441.44;1760122;80;21036;-69
2021/09/27 08:58:28;;;;;;;1.20;1.00;;;;;;;21.05;50.44;100442.34;1762926;80;21003;-70
2021/09/27 09:00:58;;;;;;;1.20;1.10;;;;;;;21.08;50.35;100437.86;1745714;79;21023;-69
2021/09/27 09:03:43;;;;;;;1.10;1.00;;;;;;;21.13;50.30;100441.55;1743638;80;21093;-70
2021/09/27 09:06:24;;;;;;;1.30;1.17;;;;;;;21.17;50.26;100441.41;1746767;80;21121;-69
2021/09/27 09:09:21;;;;;;;0.98;0.98;;;;;;;21.24;50.15;100441.34;1763052;80;21047;-69
2021/09/27 09:12:30;;;;;;;1.25;1.15;;;;;;;21.30;50.01;100439.09;1726702;81;21076;-70
2021/09/27 09:15:13;;;;;;;1.00;1.00;;;;;;;21.34;49.88;100436.28;1726927;81;21142;-70
2021/09/27 09:17:55;;;;;;;1.65;1.55;;;;;;;21.39;49.75;100433.72;1753900;80;20995;-70
2021/09/27 09:20:44;;;;;;;1.17;1.10;;;;;;;21.42;49.68;100445.95;1736535;80;21011;-70
2021/09/27 09:23:27;;;;;;;1.05;1.02;;;;;;;21.44;49.59;100442.56;1762741;80;21108;-69
2021/09/27 09:25:53;;;;;;;1.07;1.07;;;;;;;21.46;49.54;100439.61;1763124;80;21030;-69
2021/09/27 09:28:20;;;;;;;1.10;1.10;;;;;;;21.47;49.55;100442.09;1762929;80;20980;-69
2021/09/27 09:31:06;;;;;;;1.10;1.00;;;;;;;21.49;49.52;100441.34;1767902;79;21507;-70
2021/09/27 09:35:43;;;;;;;1.10;1.10;;;;;;;21.56;49.49;100438.06;1850800;76;22722;-70
2021/09/27 09:38:11;;;;;;;1.60;1.50;;;;;;;21.53;49.49;100439.84;1835087;77;20983;-69
2021/09/27 09:40:52;;;;;;;1.37;1.27;;;;;;;21.57;49.44;100439.70;1823270;77;21079;-69
2021/09/27 09:43:28;;;;;;;1.60;1.50;;;;;;;21.61;49.42;100441.43;1806453;78;20961;-69
2021/09/27 09:46:12;;;;;;;1.20;1.10;;;;;;;21.63;49.33;100448.79;1820492;78;21052;-70
2021/09/27 09:48:58;;;;;;;1.40;1.30;;;;;;;21.65;49.25;100437.22;1815350;78;20900;-69
2021/09/27 09:51:29;;;;;;;1.45;1.20;;;;;;;21.66;49.24;100446.19;1801970;77;21057;-69
2021/09/27 09:54:16;;;;;;;;;;;;;;;21.65;49.26;100434.52;1815835;77;21124;-68
2021/09/27 09:57:07;;;;;;;1.45;1.35;;;;;;;21.65;49.24;100441.81;1813704;78;20131;-70
2021/09/27 09:59:39;;;;;;;1.80;1.25;;;;;;;21.62;49.29;100451.74;1820951;77;21462;-69
2021/09/27 10:02:18;;;;;;;1.52;1.42;;;;;;;21.61;49.28;100456.30;1813425;77;21036;-70
2021/09/27 10:05:03;;;;;;;1.32;1.22;;;;;;;21.61;49.27;100453.59;1802760;78;21028;-70
2021/09/27 10:07:34;;;;;;;1.40;1.30;;;;;;;21.61;49.25;100459.00;1819574;78;21171;-69
2021/09/27 10:10:09;;;;;;;1.07;1.07;;;;;;;21.59;49.26;100456.55;1814136;78;20973;-70
2021/09/27 10:12:38;;;;;;;;;;;;;;;21.60;49.24;100462.78;1811082;78;21001;-70
2021/09/27 10:15:07;;;;;;;1.27;1.20;;;;;;;21.58;49.25;100457.58;1811505;78;20158;-70
2021/09/27 10:17:38;;;;;;;1.05;1.05;;;;;;;21.54;49.30;100456.38;1821220;77;21036;-69
2021/09/27 10:20:19;;;;;;;2.00;1.22;;;;;;;21.55;49.30;100461.25;1821512;78;21138;-70
2021/09/27 10:23:00;;;;;;;1.32;1.22;;;;;;;21.56;49.32;100465.09;1814309;78;21044;-70
2021/09/27 10:25:40;;;;;;;1.25;1.20;;;;;;;21.58;49.28;100465.70;1805320;77;21115;-71
2021/09/27 10:28:11;;;;;;;1.40;1.30;;;;;;;21.63;49.26;100464.20;1794529;77;21071;-71
2021/09/27 10:30:57;;;;;;;1.15;1.15;;;;;;;21.67;49.14;100462.19;1814737;77;21533;-70
2021/09/27 10:33:29;;;;;;;1.10;1.10;;;;;;;21.72;48.99;100462.33;1811197;78;21088;-72
2021/09/27 10:36:08;;;;;;;1.30;1.20;;;;;;;21.76;48.91;100459.47;1800763;78;21064;-70
2021/09/27 10:38:48;;;;;;;1.10;1.10;;;;;;;21.80;48.83;100462.02;1807094;77;21068;-71
2021/09/27 10:41:28;;;;;;;1.50;1.40;;;;;;;21.81;48.80;100461.52;1810396;77;21088;-71
2021/09/27 10:44:01;;;;;;;1.20;1.10;;;;;;;21.83;48.77;100463.97;1803282;77;21473;-71
2021/09/27 10:46:36;;;;;;;;;;;;;;;21.82;48.76;100457.75;1801273;78;21117;-71
2021/09/27 10:49:07;;;;;;;1.25;1.15;;;;;;;21.82;48.75;100455.05;1805040;77;20136;-73
2021/09/27 10:51:36;;;;;;;1.32;1.22;;;;;;;21.78;48.84;100461.42;1792830;78;21012;-72
2021/09/27 10:54:25;;;;;;;1.20;1.00;;;;;;;21.78;48.85;100464.66;1795387;79;21049;-71
2021/09/27 10:56:55;;;;;;;1.10;1.05;;;;;;;21.77;48.84;100461.14;1801495;77;21043;-69
2021/09/27 10:59:35;;;;;;;1.12;1.00;;;;;;;21.77;48.86;100464.37;1801905;77;21090;-71
2021/09/27 11:02:23;;;;;;;1.20;1.10;;;;;;;21.77;48.85;100468.44;1795803;77;21104;-70
2021/09/27 11:04:55;;;;;;;1.40;1.30;;;;;;;21.75;48.86;100461.89;1780572;79;21029;-70
2021/09/27 11:07:37;;;;;;;1.20;1.10;;;;;;;21.75;48.88;100463.74;1814191;78;21057;-71
2021/09/27 11:10:42;;;;;;;1.07;1.07;;;;;;;21.74;48.91;100469.69;1814029;78;21010;-71
2021/09/27 11:13:37;;;;;;;0.80;0.80;;;;;;;21.73;48.93;100468.55;1776649;80;21064;-70
2021/09/27 11:16:18;;;;;;;1.37;1.27;;;;;;;21.71;48.96;100466.59;1788834;77;21610;-72
2021/09/27 11:19:05;;;;;;;1.22;1.12;;;;;;;21.70;48.96;100463.08;1800608;77;21096;-71
2021/09/27 11:21:42;;;;;;;0.90;0.90;;;;;;;21.69;48.97;100461.94;1802999;77;21075;-70
2021/09/27 11:24:22;;;;;;;1.00;1.00;;;;;;;21.68;49.00;100458.42;1805925;77;20986;-71
2021/09/27 11:27:03;;;;;;;0.95;0.95;;;;;;;21.67;48.95;100459.99;1812236;77;21100;-70
2021/09/27 11:29:40;;;;;;;1.35;1.30;;;;;;;21.68;48.95;100458.95;1799081;79;21013;-71
2021/09/27 11:32:37;;;;;;;1.02;1.02;;;;;;;21.68;48.94;100460.30;1812331;77;21001;-69
2021/09/27 11:35:34;;;;;;;1.17;1.10;;;;;;;21.67;48.93;100452.73;1813123;78;21468;-70
2021/09/27 11:38:18;;;;;;;1.20;1.10;;;;;;;21.66;48.91;100455.12;1826394;77;21061;-71
2021/09/27 11:40:47;;;;;;;1.27;1.17;;;;;;;21.66;48.93;100454.30;1809209;77;21120;-70
2021/09/27 11:43:21;;;;;;;1.20;1.10;;;;;;;21.65;48.93;100455.33;1791802;79;21101;-71
2021/09/27 11:45:57;;;;;;;1.20;1.10;;;;;;;21.65;48.88;100461.56;1807300;77;21025;-72
2021/09/27 11:48:44;;;;;;;1.30;1.20;;;;;;;21.64;48.88;100453.70;1813696;79;21367;-70
2021/09/27 11:51:17;;;;;;;1.30;1.20;;;;;;;21.66;48.87;100454.30;1814197;77;21529;-70
2021/09/27 11:54:14;;;;;;;1.00;1.00;;;;;;;21.65;48.90;100459.39;1797544;78;21074;-71
2021/09/27 11:57:03;;;;;;;1.00;1.00;;;;;;;21.63;48.89;100459.61;1798985;77;21058;-70
2021/09/27 12:00:01;;;;;;;1.12;1.02;;;;;;;21.63;48.87;100464.20;1808812;77;20998;-71
2021/09/27 12:02:54;;;;;;;1.30;1.20;;;;;;;21.62;48.92;100459.32;1807770;77;21037;-69
2021/09/27 12:05:53;;;;;;;1.30;1.30;;;;;;;21.62;48.91;100463.91;1799011;77;21021;-71
2021/09/27 12:08:25;;;;;;;1.05;1.05;;;;;;;21.61;48.92;100461.70;1804335;79;21083;-71
2021/09/27 12:11:05;;;;;;;1.10;1.10;;;;;;;21.58;48.93;100469.75;1797795;78;21030;-69
2021/09/27 12:13:59;;;;;;;1.30;1.20;;;;;;;21.59;48.95;100466.52;1799360;79;20903;-72
2021/09/27 12:16:33;;;;;;;1.10;1.10;;;;;;;21.58;48.92;100462.17;1812998;78;20867;-66
2021/09/27 12:19:14;;;;;;;1.00;1.00;;;;;;;21.56;48.92;100465.09;1814296;77;20895;-65
2021/09/27 12:21:47;;;;;;;1.23;1.17;;;;;;;21.57;48.90;100467.27;1814528;77;21058;-66
2021/09/27 12:24:36;;;;;;;1.30;1.20;;;;;;;21.55;48.89;100466.12;1814281;79;21268;-72
2021/09/27 12:27:18;;;;;;;1.20;1.10;;;;;;;21.53;48.86;100468.23;1788078;79;21580;-70
2021/09/27 12:30:05;;;;;;;1.05;1.00;;;;;;;21.52;48.85;100464.42;1813851;78;21025;-71